sensor_id;sensor_type;location;lat;lon;timestamp;pressure;altitude;pressure_sealevel;temperature;humidity
44198;BME280;30157;55.512;37.764;2023-09-07T00:00:15;100342.75;;;9.59;69.30
44198;BME280;30157;55.512;37.764;2023-09-07T00:02:41;100335.75;;;9.50;69.25
44198;BME280;30157;55.512;37.764;2023-09-07T00:05:08;100430.34;;;10.00;69.39
44198;BME280;30157;55.512;37.764;2023-09-07T00:07:34;100331.41;;;9.41;69.59
44198;BME280;30157;55.512;37.764;2023-09-07T00:10:00;100310.56;;;9.28;69.72
44198;BME280;30157;55.512;37.764;2023-09-07T00:12:26;100427.69;;;9.94;69.65
44198;BME280;30157;55.512;37.764;2023-09-07T00:14:53;100319.13;;;9.22;69.74
44198;BME280;30157;55.512;37.764;2023-09-07T00:17:22;100444.94;;;9.89;69.86
44198;BME280;30157;55.512;37.764;2023-09-07T00:19:48;100436.31;;;9.88;69.83
44198;BME280;30157;55.512;37.764;2023-09-07T00:22:17;100395.50;;;9.64;70.03
44198;BME280;30157;55.512;37.764;2023-09-07T00:24:44;100391.94;;;9.54;70.09
44198;BME280;30157;55.512;37.764;2023-09-07T00:27:11;100444.91;;;9.84;70.32
44198;BME280;30157;55.512;37.764;2023-09-07T00:29:38;100443.16;;;9.80;70.42
44198;BME280;30157;55.512;37.764;2023-09-07T00:32:05;100440.50;;;9.74;70.38
44198;BME280;30157;55.512;37.764;2023-09-07T00:34:31;100430.06;;;9.66;70.36
44198;BME280;30157;55.512;37.764;2023-09-07T00:36:57;100417.06;;;9.60;70.18
44198;BME280;30157;55.512;37.764;2023-09-07T00:39:23;100318.19;;;9.11;70.05
44198;BME280;30157;55.512;37.764;2023-09-07T00:41:49;100445.00;;;9.94;70.00
44198;BME280;30157;55.512;37.764;2023-09-07T00:44:15;100457.22;;;10.10;69.78
44198;BME280;30157;55.512;37.764;2023-09-07T00:46:41;100460.72;;;10.17;69.25
44198;BME280;30157;55.512;37.764;2023-09-07T00:49:08;100460.78;;;10.24;68.98
44198;BME280;30157;55.512;37.764;2023-09-07T00:51:33;100399.16;;;9.92;68.78
44198;BME280;30157;55.512;37.764;2023-09-07T00:54:00;100431.28;;;10.10;68.85
44198;BME280;30157;55.512;37.764;2023-09-07T00:56:26;100433.88;;;10.12;68.51
44198;BME280;30157;55.512;37.764;2023-09-07T00:58:53;100371.44;;;9.84;68.75
44198;BME280;30157;55.512;37.764;2023-09-07T01:01:25;100467.84;;;10.46;68.58
44198;BME280;30157;55.512;37.764;2023-09-07T01:03:51;100433.09;;;10.22;68.14
44198;BME280;30157;55.512;37.764;2023-09-07T01:06:29;100466.06;;;10.37;68.54
44198;BME280;30157;55.512;37.764;2023-09-07T01:08:57;100475.47;;;10.27;68.74
44198;BME280;30157;55.512;37.764;2023-09-07T01:11:26;100474.56;;;10.20;69.11
44198;BME280;30157;55.512;37.764;2023-09-07T01:13:52;100471.09;;;10.18;69.10
44198;BME280;30157;55.512;37.764;2023-09-07T01:16:21;100477.97;;;10.15;69.02
44198;BME280;30157;55.512;37.764;2023-09-07T01:18:50;100471.03;;;10.11;69.54
44198;BME280;30157;55.512;37.764;2023-09-07T01:21:17;100464.00;;;9.94;69.70
44198;BME280;30157;55.512;37.764;2023-09-07T01:23:44;100436.16;;;9.71;69.98
44198;BME280;30157;55.512;37.764;2023-09-07T01:26:10;100451.72;;;9.74;70.03
44198;BME280;30157;55.512;37.764;2023-09-07T01:28:37;100491.59;;;9.86;70.27
44198;BME280;30157;55.512;37.764;2023-09-07T01:31:04;100438.53;;;9.48;70.33
44198;BME280;30157;55.512;37.764;2023-09-07T01:33:31;100488.91;;;9.73;70.71
44198;BME280;30157;55.512;37.764;2023-09-07T01:35:57;100483.66;;;9.69;70.78
44198;BME280;30157;55.512;37.764;2023-09-07T01:38:23;100420.13;;;9.22;70.84
44198;BME280;30157;55.512;37.764;2023-09-07T01:40:48;100321.16;;;8.62;71.26
44198;BME280;30157;55.512;37.764;2023-09-07T01:43:14;100293.25;;;8.39;71.06
44198;BME280;30157;55.512;37.764;2023-09-07T01:45:42;100471.31;;;9.45;71.72
44198;BME280;30157;55.512;37.764;2023-09-07T01:48:13;100391.31;;;8.91;71.45
44198;BME280;30157;55.512;37.764;2023-09-07T01:50:39;100506.84;;;9.53;71.64
44198;BME280;30157;55.512;37.764;2023-09-07T01:53:05;100487.69;;;9.39;71.90
44198;BME280;30157;55.512;37.764;2023-09-07T01:55:32;100360.81;;;8.61;72.34
44198;BME280;30157;55.512;37.764;2023-09-07T01:57:59;100505.94;;;9.50;72.41
44198;BME280;30157;55.512;37.764;2023-09-07T02:00:25;100504.19;;;9.49;72.90
44198;BME280;30157;55.512;37.764;2023-09-07T02:02:51;100465.91;;;9.20;72.69
44198;BME280;30157;55.512;37.764;2023-09-07T02:05:17;100478.03;;;9.25;72.78
44198;BME280;30157;55.512;37.764;2023-09-07T02:07:44;100452.84;;;9.11;73.03
44198;BME280;30157;55.512;37.764;2023-09-07T02:10:10;100478.88;;;9.23;73.17
44198;BME280;30157;55.512;37.764;2023-09-07T02:12:37;100410.19;;;8.79;73.28
44198;BME280;30157;55.512;37.764;2023-09-07T02:15:05;100418.78;;;8.77;73.69
44198;BME280;30157;55.512;37.764;2023-09-07T02:17:33;100501.22;;;9.16;73.96
44198;BME280;30157;55.512;37.764;2023-09-07T02:20:00;100381.34;;;8.48;74.10
44198;BME280;30157;55.512;37.764;2023-09-07T02:22:25;100374.28;;;8.38;74.66
44198;BME280;30157;55.512;37.764;2023-09-07T02:24:51;100474.16;;;8.89;74.66
44198;BME280;30157;55.512;37.764;2023-09-07T02:27:17;100475.00;;;8.88;75.14
44198;BME280;30157;55.512;37.764;2023-09-07T02:29:43;100504.50;;;9.00;75.34
44198;BME280;30157;55.512;37.764;2023-09-07T02:32:09;100444.56;;;8.69;75.29
44198;BME280;30157;55.512;37.764;2023-09-07T02:34:35;100497.66;;;9.03;75.84
44198;BME280;30157;55.512;37.764;2023-09-07T02:37:04;100538.47;;;9.26;75.73
44198;BME280;30157;55.512;37.764;2023-09-07T02:39:30;100429.03;;;8.69;75.85
44198;BME280;30157;55.512;37.764;2023-09-07T02:41:56;100415.94;;;8.55;75.82
44198;BME280;30157;55.512;37.764;2023-09-07T02:44:22;100504.53;;;9.03;76.02
44198;BME280;30157;55.512;37.764;2023-09-07T02:46:48;100436.72;;;8.64;76.08
44198;BME280;30157;55.512;37.764;2023-09-07T02:49:14;100453.25;;;8.72;76.32
44198;BME280;30157;55.512;37.764;2023-09-07T02:51:40;100548.78;;;9.20;76.37
44198;BME280;30157;55.512;37.764;2023-09-07T02:54:06;100494.84;;;8.88;76.42
44198;BME280;30157;55.512;37.764;2023-09-07T02:56:32;100463.41;;;8.58;76.31
44198;BME280;30157;55.512;37.764;2023-09-07T02:58:58;100554.81;;;9.22;76.75
44198;BME280;30157;55.512;37.764;2023-09-07T03:01:24;100555.72;;;9.24;76.80
44198;BME280;30157;55.512;37.764;2023-09-07T03:03:50;100552.28;;;9.25;76.99
44198;BME280;30157;55.512;37.764;2023-09-07T03:06:17;100552.31;;;9.28;76.95
44198;BME280;30157;55.512;37.764;2023-09-07T03:08:47;100549.63;;;9.20;76.97
44198;BME280;30157;55.512;37.764;2023-09-07T03:11:13;100533.97;;;9.11;76.71
44198;BME280;30157;55.512;37.764;2023-09-07T03:13:39;100536.56;;;9.13;77.15
44198;BME280;30157;55.512;37.764;2023-09-07T03:16:05;100513.09;;;8.97;77.09
44198;BME280;30157;55.512;37.764;2023-09-07T03:18:31;100462.78;;;8.75;77.06
44198;BME280;30157;55.512;37.764;2023-09-07T03:20:59;100447.94;;;8.62;76.93
44198;BME280;30157;55.512;37.764;2023-09-07T03:23:25;100478.31;;;8.77;77.02
44198;BME280;30157;55.512;37.764;2023-09-07T03:25:52;100543.75;;;9.34;77.30
44198;BME280;30157;55.512;37.764;2023-09-07T03:28:18;100544.31;;;9.88;76.57
44198;BME280;30157;55.512;37.764;2023-09-07T03:30:45;100465.69;;;9.87;75.75
44198;BME280;30157;55.512;37.764;2023-09-07T03:33:11;100522.47;;;10.64;74.78
44198;BME280;30157;55.512;37.764;2023-09-07T03:35:37;100574.78;;;11.38;73.50
44198;BME280;30157;55.512;37.764;2023-09-07T03:38:04;100576.66;;;11.80;71.75
44198;BME280;30157;55.512;37.764;2023-09-07T03:40:30;100455.22;;;11.41;70.56
44198;BME280;30157;55.512;37.764;2023-09-07T03:42:56;100567.19;;;12.40;69.65
44198;BME280;30157;55.512;37.764;2023-09-07T03:45:22;100581.91;;;12.85;68.14
44198;BME280;30157;55.512;37.764;2023-09-07T03:47:48;100514.22;;;12.69;66.53
44198;BME280;30157;55.512;37.764;2023-09-07T03:50:16;100460.41;;;12.65;65.37
44198;BME280;30157;55.512;37.764;2023-09-07T03:52:41;100486.34;;;12.99;64.30
44198;BME280;30157;55.512;37.764;2023-09-07T03:55:08;100581.56;;;13.81;63.62
44198;BME280;30157;55.512;37.764;2023-09-07T03:57:34;100337.22;;;12.54;63.01
44198;BME280;30157;55.512;37.764;2023-09-07T04:00:00;100485.91;;;13.80;61.43
44198;BME280;30157;55.512;37.764;2023-09-07T04:02:31;100496.97;;;14.11;60.45
44198;BME280;30157;55.512;37.764;2023-09-07T04:04:57;100551.38;;;14.64;59.70
44198;BME280;30157;55.512;37.764;2023-09-07T04:07:22;100571.88;;;14.99;58.91
44198;BME280;30157;55.512;37.764;2023-09-07T04:09:50;100513.63;;;14.91;58.45
44198;BME280;30157;55.512;37.764;2023-09-07T04:12:15;100596.34;;;15.67;57.58
44198;BME280;30157;55.512;37.764;2023-09-07T04:14:41;100587.41;;;15.86;56.60
44198;BME280;30157;55.512;37.764;2023-09-07T04:17:08;100489.31;;;15.51;55.33
44198;BME280;30157;55.512;37.764;2023-09-07T04:19:33;100606.00;;;16.25;54.95
44198;BME280;30157;55.512;37.764;2023-09-07T04:22:00;100425.78;;;15.41;55.28
44198;BME280;30157;55.512;37.764;2023-09-07T04:24:26;100390.69;;;15.55;53.56
44198;BME280;30157;55.512;37.764;2023-09-07T04:26:53;100393.13;;;15.67;53.10
44198;BME280;30157;55.512;37.764;2023-09-07T04:29:23;100531.81;;;16.75;51.43
44198;BME280;30157;55.512;37.764;2023-09-07T04:31:49;100543.03;;;16.82;51.06
44198;BME280;30157;55.512;37.764;2023-09-07T04:34:15;100617.72;;;17.51;50.59
44198;BME280;30157;55.512;37.764;2023-09-07T04:36:41;100606.19;;;17.60;50.09
44198;BME280;30157;55.512;37.764;2023-09-07T04:39:07;100497.81;;;17.16;49.14
44198;BME280;30157;55.512;37.764;2023-09-07T04:41:32;100599.50;;;17.86;48.47
44198;BME280;30157;55.512;37.764;2023-09-07T04:43:58;100540.13;;;17.41;47.86
44198;BME280;30157;55.512;37.764;2023-09-07T04:46:24;100620.47;;;17.87;47.78
44198;BME280;30157;55.512;37.764;2023-09-07T04:48:50;100534.56;;;17.55;47.74
44198;BME280;30157;55.512;37.764;2023-09-07T04:51:17;100567.13;;;17.85;46.16
44198;BME280;30157;55.512;37.764;2023-09-07T04:53:43;100547.97;;;17.82;46.24
44198;BME280;30157;55.512;37.764;2023-09-07T04:56:09;100624.66;;;18.35;46.27
44198;BME280;30157;55.512;37.764;2023-09-07T04:58:36;100535.09;;;18.08;45.46
44198;BME280;30157;55.512;37.764;2023-09-07T05:01:06;100629.16;;;18.66;44.83
44198;BME280;30157;55.512;37.764;2023-09-07T05:03:32;100547.75;;;18.28;44.42
44198;BME280;30157;55.512;37.764;2023-09-07T05:05:59;100646.84;;;18.94;44.80
44198;BME280;30157;55.512;37.764;2023-09-07T05:08:25;100634.91;;;19.15;43.93
44198;BME280;30157;55.512;37.764;2023-09-07T05:11:02;100632.06;;;19.23;44.18
44198;BME280;30157;55.512;37.764;2023-09-07T05:13:31;100567.34;;;19.16;43.73
44198;BME280;30157;55.512;37.764;2023-09-07T05:15:59;100625.00;;;19.86;43.07
44198;BME280;30157;55.512;37.764;2023-09-07T05:18:27;100549.53;;;19.85;41.75
44198;BME280;30157;55.512;37.764;2023-09-07T05:20:53;100588.81;;;20.20;40.92
44198;BME280;30157;55.512;37.764;2023-09-07T05:23:21;100604.94;;;20.37;41.68
44198;BME280;30157;55.512;37.764;2023-09-07T05:25:54;100583.44;;;20.50;40.87
44198;BME280;30157;55.512;37.764;2023-09-07T05:28:22;100633.84;;;20.94;39.53
44198;BME280;30157;55.512;37.764;2023-09-07T05:30:50;100585.88;;;20.56;39.40
44198;BME280;30157;55.512;37.764;2023-09-07T05:33:16;100640.41;;;21.07;40.23
44198;BME280;30157;55.512;37.764;2023-09-07T05:35:43;100632.56;;;21.29;39.32
44198;BME280;30157;55.512;37.764;2023-09-07T05:38:10;100559.50;;;21.06;38.99
44198;BME280;30157;55.512;37.764;2023-09-07T05:40:39;100574.53;;;21.28;38.13
44198;BME280;30157;55.512;37.764;2023-09-07T05:43:05;100455.94;;;20.52;38.12
44198;BME280;30157;55.512;37.764;2023-09-07T05:45:35;100595.16;;;21.18;38.12
44198;BME280;30157;55.512;37.764;2023-09-07T05:48:06;100585.59;;;21.38;37.76
44198;BME280;30157;55.512;37.764;2023-09-07T05:50:37;100541.84;;;21.32;37.03
44198;BME280;30157;55.512;37.764;2023-09-07T05:53:04;100437.75;;;20.70;36.87
44198;BME280;30157;55.512;37.764;2023-09-07T05:55:32;100533.81;;;21.11;37.29
44198;BME280;30157;55.512;37.764;2023-09-07T05:57:58;100438.69;;;20.67;37.17
44198;BME280;30157;55.512;37.764;2023-09-07T06:00:26;100455.28;;;20.94;36.93
44198;BME280;30157;55.512;37.764;2023-09-07T06:02:53;100417.63;;;21.13;35.73
44198;BME280;30157;55.512;37.764;2023-09-07T06:05:18;100496.25;;;21.73;35.46
44198;BME280;30157;55.512;37.764;2023-09-07T06:07:45;100549.19;;;22.14;35.31
44198;BME280;30157;55.512;37.764;2023-09-07T06:10:13;100491.34;;;21.86;34.89
44198;BME280;30157;55.512;37.764;2023-09-07T06:12:39;100617.66;;;22.64;34.87
44198;BME280;30157;55.512;37.764;2023-09-07T06:15:05;100621.66;;;22.94;34.52
44198;BME280;30157;55.512;37.764;2023-09-07T06:17:33;100657.03;;;23.13;34.85
44198;BME280;30157;55.512;37.764;2023-09-07T06:19:59;100520.44;;;22.49;34.92
44198;BME280;30157;55.512;37.764;2023-09-07T06:22:25;100602.84;;;23.41;33.65
44198;BME280;30157;55.512;37.764;2023-09-07T06:24:52;100651.47;;;23.78;33.82
44198;BME280;30157;55.512;37.764;2023-09-07T06:27:19;100665.53;;;23.80;33.33
44198;BME280;30157;55.512;37.764;2023-09-07T06:29:45;100658.44;;;24.00;32.94
44198;BME280;30157;55.512;37.764;2023-09-07T06:32:12;100577.63;;;23.71;32.59
44198;BME280;30157;55.512;37.764;2023-09-07T06:34:39;100650.63;;;24.33;33.01
44198;BME280;30157;55.512;37.764;2023-09-07T06:37:05;100666.44;;;24.18;32.18
44198;BME280;30157;55.512;37.764;2023-09-07T06:39:31;100644.44;;;23.39;32.72
44198;BME280;30157;55.512;37.764;2023-09-07T06:41:57;100669.19;;;22.32;34.41
44198;BME280;30157;55.512;37.764;2023-09-07T06:44:27;100688.09;;;21.77;36.09
44198;BME280;30157;55.512;37.764;2023-09-07T06:46:53;100587.63;;;20.82;37.11
44198;BME280;30157;55.512;37.764;2023-09-07T06:49:19;100633.78;;;22.14;35.49
44198;BME280;30157;55.512;37.764;2023-09-07T06:51:44;100639.00;;;22.80;34.46
44198;BME280;30157;55.512;37.764;2023-09-07T06:54:10;100677.38;;;23.11;33.72
44198;BME280;30157;55.512;37.764;2023-09-07T06:56:37;100578.09;;;22.82;33.35
44198;BME280;30157;55.512;37.764;2023-09-07T06:59:03;100673.56;;;23.39;33.18
44198;BME280;30157;55.512;37.764;2023-09-07T07:01:29;100606.34;;;23.23;32.94
44198;BME280;30157;55.512;37.764;2023-09-07T07:03:55;100645.16;;;23.43;32.84
44198;BME280;30157;55.512;37.764;2023-09-07T07:06:23;100680.94;;;24.10;32.36
44198;BME280;30157;55.512;37.764;2023-09-07T07:08:49;100596.53;;;24.01;31.83
44198;BME280;30157;55.512;37.764;2023-09-07T07:11:15;100657.75;;;24.70;31.28
44198;BME280;30157;55.512;37.764;2023-09-07T07:13:41;100603.28;;;24.61;31.09
44198;BME280;30157;55.512;37.764;2023-09-07T07:16:07;100577.19;;;24.71;30.28
44198;BME280;30157;55.512;37.764;2023-09-07T07:18:33;100629.81;;;25.13;30.24
44198;BME280;30157;55.512;37.764;2023-09-07T07:20:59;100686.72;;;25.76;30.13
44198;BME280;30157;55.512;37.764;2023-09-07T07:23:24;100604.81;;;25.83;29.64
44198;BME280;30157;55.512;37.764;2023-09-07T07:25:50;100686.34;;;26.62;28.39
44198;BME280;30157;55.512;37.764;2023-09-07T07:28:18;100670.69;;;25.78;28.33
44198;BME280;30157;55.512;37.764;2023-09-07T07:30:43;100637.81;;;25.63;28.32
44198;BME280;30157;55.512;37.764;2023-09-07T07:33:10;100693.75;;;25.77;28.53
44198;BME280;30157;55.512;37.764;2023-09-07T07:35:38;100676.22;;;25.57;29.21
44198;BME280;30157;55.512;37.764;2023-09-07T07:38:05;100689.53;;;26.07;29.08
44198;BME280;30157;55.512;37.764;2023-09-07T07:40:33;100670.13;;;26.05;28.09
44198;BME280;30157;55.512;37.764;2023-09-07T07:42:59;100657.41;;;26.10;27.72
44198;BME280;30157;55.512;37.764;2023-09-07T07:45:25;100668.75;;;26.29;28.27
44198;BME280;30157;55.512;37.764;2023-09-07T07:47:53;100691.97;;;26.88;27.63
44198;BME280;30157;55.512;37.764;2023-09-07T07:50:19;100692.94;;;26.25;28.16
44198;BME280;30157;55.512;37.764;2023-09-07T07:52:46;100691.84;;;26.59;27.14
44198;BME280;30157;55.512;37.764;2023-09-07T07:55:12;100664.53;;;26.72;26.97
44198;BME280;30157;55.512;37.764;2023-09-07T07:57:38;100646.75;;;26.72;26.81
44198;BME280;30157;55.512;37.764;2023-09-07T08:00:05;100694.97;;;26.36;27.31
44198;BME280;30157;55.512;37.764;2023-09-07T08:02:39;100618.81;;;26.19;27.13
44198;BME280;30157;55.512;37.764;2023-09-07T08:05:08;100594.97;;;26.01;27.00
44198;BME280;30157;55.512;37.764;2023-09-07T08:07:36;100682.56;;;26.36;26.85
44198;BME280;30157;55.512;37.764;2023-09-07T08:10:01;100686.94;;;26.05;26.56
44198;BME280;30157;55.512;37.764;2023-09-07T08:12:29;100642.31;;;25.94;26.36
44198;BME280;30157;55.512;37.764;2023-09-07T08:14:55;100654.72;;;25.94;26.33
44198;BME280;30157;55.512;37.764;2023-09-07T08:17:22;100656.00;;;25.55;26.58
44198;BME280;30157;55.512;37.764;2023-09-07T08:19:49;100683.09;;;24.75;28.45
44198;BME280;30157;55.512;37.764;2023-09-07T08:22:20;100644.69;;;25.83;27.47
44198;BME280;30157;55.512;37.764;2023-09-07T08:24:47;100584.69;;;25.79;26.54
44198;BME280;30157;55.512;37.764;2023-09-07T08:27:15;100452.50;;;23.83;27.71
44198;BME280;30157;55.512;37.764;2023-09-07T08:29:45;100493.75;;;23.89;27.73
44198;BME280;30157;55.512;37.764;2023-09-07T08:32:18;100646.28;;;25.54;27.51
44198;BME280;30157;55.512;37.764;2023-09-07T08:34:44;100624.44;;;24.27;28.57
44198;BME280;30157;55.512;37.764;2023-09-07T08:37:11;100636.53;;;25.54;27.12
44198;BME280;30157;55.512;37.764;2023-09-07T08:39:37;100604.97;;;24.63;27.66
44198;BME280;30157;55.512;37.764;2023-09-07T08:42:05;100470.47;;;24.13;27.67
44198;BME280;30157;55.512;37.764;2023-09-07T08:44:33;100593.63;;;25.28;27.10
44198;BME280;30157;55.512;37.764;2023-09-07T08:47:01;100570.25;;;25.83;26.17
44198;BME280;30157;55.512;37.764;2023-09-07T08:49:29;100613.44;;;26.35;25.71
44198;BME280;30157;55.512;37.764;2023-09-07T08:51:58;100636.09;;;26.72;25.90
44198;BME280;30157;55.512;37.764;2023-09-07T08:54:25;100600.78;;;26.85;24.69
44198;BME280;30157;55.512;37.764;2023-09-07T08:56:52;100586.09;;;26.77;24.56
44198;BME280;30157;55.512;37.764;2023-09-07T08:59:18;100675.41;;;27.71;23.71
44198;BME280;30157;55.512;37.764;2023-09-07T09:01:45;100675.56;;;25.70;26.01
44198;BME280;30157;55.512;37.764;2023-09-07T09:04:12;100413.22;;;23.74;26.38
44198;BME280;30157;55.512;37.764;2023-09-07T09:06:38;100487.09;;;24.17;26.58
44198;BME280;30157;55.512;37.764;2023-09-07T09:09:04;100467.56;;;22.68;28.91
44198;BME280;30157;55.512;37.764;2023-09-07T09:11:33;100571.19;;;23.38;28.67
44198;BME280;30157;55.512;37.764;2023-09-07T09:13:58;100504.50;;;21.87;30.07
44198;BME280;30157;55.512;37.764;2023-09-07T09:16:25;100549.47;;;21.40;30.81
44198;BME280;30157;55.512;37.764;2023-09-07T09:18:55;100442.81;;;21.44;30.33
44198;BME280;30157;55.512;37.764;2023-09-07T09:21:22;100566.69;;;21.96;30.58
44198;BME280;30157;55.512;37.764;2023-09-07T09:23:50;100573.28;;;23.51;28.57
44198;BME280;30157;55.512;37.764;2023-09-07T09:26:17;100348.19;;;22.76;28.50
44198;BME280;30157;55.512;37.764;2023-09-07T09:28:43;100486.47;;;24.96;25.56
44198;BME280;30157;55.512;37.764;2023-09-07T09:31:14;100463.44;;;24.80;25.60
44198;BME280;30157;55.512;37.764;2023-09-07T09:33:41;100489.44;;;23.86;26.80
44198;BME280;30157;55.512;37.764;2023-09-07T09:36:08;100418.44;;;24.10;26.35
44198;BME280;30157;55.512;37.764;2023-09-07T09:38:35;100324.81;;;24.26;25.88
44198;BME280;30157;55.512;37.764;2023-09-07T09:41:02;100660.81;;;26.28;24.80
44198;BME280;30157;55.512;37.764;2023-09-07T09:43:29;100537.75;;;25.94;24.71
44198;BME280;30157;55.512;37.764;2023-09-07T09:45:56;100446.63;;;24.46;25.86
44198;BME280;30157;55.512;37.764;2023-09-07T09:48:23;100471.72;;;24.74;25.53
44198;BME280;30157;55.512;37.764;2023-09-07T09:50:50;100631.84;;;26.07;25.80
44198;BME280;30157;55.512;37.764;2023-09-07T09:53:17;100466.53;;;23.48;26.80
44198;BME280;30157;55.512;37.764;2023-09-07T09:55:47;100668.41;;;23.15;28.19
44198;BME280;30157;55.512;37.764;2023-09-07T09:58:14;100497.03;;;20.83;30.23
44198;BME280;30157;55.512;37.764;2023-09-07T10:00:44;100438.81;;;19.60;31.37
44198;BME280;30157;55.512;37.764;2023-09-07T10:03:15;100545.25;;;19.23;31.46
44198;BME280;30157;55.512;37.764;2023-09-07T10:05:46;100467.34;;;18.21;32.81
44198;BME280;30157;55.512;37.764;2023-09-07T10:08:13;100449.84;;;18.85;31.55
44198;BME280;30157;55.512;37.764;2023-09-07T10:10:41;100320.72;;;19.74;29.14
44198;BME280;30157;55.512;37.764;2023-09-07T10:13:08;100327.59;;;20.98;28.82
44198;BME280;30157;55.512;37.764;2023-09-07T10:15:34;100370.47;;;22.11;26.58
44198;BME280;30157;55.512;37.764;2023-09-07T10:18:05;100655.78;;;24.00;26.38
44198;BME280;30157;55.512;37.764;2023-09-07T10:20:54;100354.03;;;20.75;27.85
44198;BME280;30157;55.512;37.764;2023-09-07T10:23:22;100667.09;;;21.72;29.92
44198;BME280;30157;55.512;37.764;2023-09-07T10:25:52;100647.66;;;21.97;29.86
44198;BME280;30157;55.512;37.764;2023-09-07T10:30:45;100646.31;;;23.56;27.75
44198;BME280;30157;55.512;37.764;2023-09-07T10:33:21;100645.97;;;24.39;26.83
44198;BME280;30157;55.512;37.764;2023-09-07T10:35:47;100625.03;;;24.69;26.00
44198;BME280;30157;55.512;37.764;2023-09-07T10:38:15;100653.03;;;23.44;26.88
44198;BME280;30157;55.512;37.764;2023-09-07T10:40:44;100531.84;;;21.64;27.76
44198;BME280;30157;55.512;37.764;2023-09-07T10:43:10;100657.13;;;21.57;28.99
44198;BME280;30157;55.512;37.764;2023-09-07T10:45:36;100652.41;;;22.33;28.01
44198;BME280;30157;55.512;37.764;2023-09-07T10:48:02;100622.41;;;22.34;28.54
44198;BME280;30157;55.512;37.764;2023-09-07T10:50:29;100606.06;;;22.67;27.73
44198;BME280;30157;55.512;37.764;2023-09-07T10:52:55;100560.41;;;21.76;28.51
44198;BME280;30157;55.512;37.764;2023-09-07T10:55:21;100625.81;;;20.97;29.89
44198;BME280;30157;55.512;37.764;2023-09-07T10:57:47;100612.50;;;20.21;30.79
44198;BME280;30157;55.512;37.764;2023-09-07T11:00:14;100625.47;;;19.69;32.15
44198;BME280;30157;55.512;37.764;2023-09-07T11:02:41;100668.06;;;19.54;33.02
44198;BME280;30157;55.512;37.764;2023-09-07T11:05:08;100575.00;;;19.55;32.56
44198;BME280;30157;55.512;37.764;2023-09-07T11:07:34;100628.16;;;19.68;33.20
44198;BME280;30157;55.512;37.764;2023-09-07T11:10:00;100654.91;;;20.40;32.12
44198;BME280;30157;55.512;37.764;2023-09-07T11:12:26;100657.50;;;22.39;28.78
44198;BME280;30157;55.512;37.764;2023-09-07T11:14:51;100615.56;;;23.33;26.66
44198;BME280;30157;55.512;37.764;2023-09-07T11:17:19;100651.16;;;23.46;25.77
44198;BME280;30157;55.512;37.764;2023-09-07T11:19:44;100662.16;;;23.96;25.13
44198;BME280;30157;55.512;37.764;2023-09-07T11:22:11;100542.13;;;23.94;24.47
44198;BME280;30157;55.512;37.764;2023-09-07T11:24:36;100646.22;;;24.52;24.32
44198;BME280;30157;55.512;37.764;2023-09-07T11:27:03;100589.09;;;24.79;24.25
44198;BME280;30157;55.512;37.764;2023-09-07T11:29:31;100587.41;;;25.45;23.75
44198;BME280;30157;55.512;37.764;2023-09-07T11:32:09;100553.00;;;26.06;23.35
44198;BME280;30157;55.512;37.764;2023-09-07T11:34:35;100631.13;;;25.40;24.39
44198;BME280;30157;55.512;37.764;2023-09-07T11:37:04;100607.53;;;22.95;26.94
44198;BME280;30157;55.512;37.764;2023-09-07T11:39:30;100582.00;;;21.40;28.19
44198;BME280;30157;55.512;37.764;2023-09-07T11:41:55;100631.75;;;22.65;26.56
44198;BME280;30157;55.512;37.764;2023-09-07T11:44:21;100517.38;;;22.98;26.09
44198;BME280;30157;55.512;37.764;2023-09-07T11:46:47;100595.81;;;23.59;25.97
44198;BME280;30157;55.512;37.764;2023-09-07T11:51:39;100625.56;;;21.52;28.32
44198;BME280;30157;55.512;37.764;2023-09-07T11:54:05;100507.91;;;22.11;27.18
44198;BME280;30157;55.512;37.764;2023-09-07T11:56:31;100451.13;;;23.93;25.19
44198;BME280;30157;55.512;37.764;2023-09-07T11:58:57;100595.44;;;26.24;23.61
44198;BME280;30157;55.512;37.764;2023-09-07T12:01:23;100619.97;;;26.75;22.81
44198;BME280;30157;55.512;37.764;2023-09-07T12:03:49;100623.88;;;23.82;25.73
44198;BME280;30157;55.512;37.764;2023-09-07T12:06:14;100628.94;;;22.03;28.14
44198;BME280;30157;55.512;37.764;2023-09-07T12:08:42;100542.78;;;23.23;26.19
44198;BME280;30157;55.512;37.764;2023-09-07T12:11:23;100616.66;;;24.05;24.34
44198;BME280;30157;55.512;37.764;2023-09-07T12:13:48;100585.06;;;22.85;26.00
44198;BME280;30157;55.512;37.764;2023-09-07T12:16:14;100540.34;;;22.15;27.03
44198;BME280;30157;55.512;37.764;2023-09-07T12:18:40;100481.28;;;21.73;27.93
44198;BME280;30157;55.512;37.764;2023-09-07T12:21:06;100561.44;;;21.01;29.57
44198;BME280;30157;55.512;37.764;2023-09-07T12:23:32;100544.97;;;19.90;31.58
44198;BME280;30157;55.512;37.764;2023-09-07T12:25:58;100412.50;;;18.42;32.58
44198;BME280;30157;55.512;37.764;2023-09-07T12:28:23;100533.19;;;18.83;33.05
44198;BME280;30157;55.512;37.764;2023-09-07T12:30:49;100561.75;;;18.96;33.44
44198;BME280;30157;55.512;37.764;2023-09-07T12:33:15;100526.13;;;19.74;31.36
44198;BME280;30157;55.512;37.764;2023-09-07T12:35:41;100590.03;;;19.20;31.71
44198;BME280;30157;55.512;37.764;2023-09-07T12:38:06;100551.75;;;18.43;31.84
44198;BME280;30157;55.512;37.764;2023-09-07T12:40:34;100486.91;;;17.73;33.19
44198;BME280;30157;55.512;37.764;2023-09-07T12:43:00;100506.00;;;19.15;31.45
44198;BME280;30157;55.512;37.764;2023-09-07T12:45:26;100511.72;;;20.90;28.96